Time;durP1;ratioP1;P1;durP2;ratioP2;P2;SDS_P1;SDS_P2;PMS_P1;PMS_P2;Temp;Humidity;BMP_temperature;BMP_pressure;BME280_temperature;BME280_humidity;BME280_pressure;Samples;Min_cycle;Max_cycle;Signal;HPM_P1;HPM_P2
2022/04/25 00:00:10;;;;;;;3.67;2.60;;;11.20;99.90;;;;;;5038218;28;20091;-87
2022/04/25 00:02:36;;;;;;;2.90;2.38;;;11.20;99.90;;;;;;5038696;28;20086;-87
2022/04/25 00:05:02;;;;;;;2.83;2.30;;;11.20;99.90;;;;;;5038168;28;20112;-87
2022/04/25 00:07:28;;;;;;;3.08;2.40;;;11.20;99.90;;;;;;5038016;28;20025;-87
2022/04/25 00:09:53;;;;;;;3.40;2.53;;;11.20;99.90;;;;;;5038133;28;20044;-87
2022/04/25 00:12:19;;;;;;;2.67;2.35;;;11.20;99.90;;;;;;5055969;28;20033;-87
2022/04/25 00:14:45;;;;;;;4.38;2.72;;;11.10;99.90;;;;;;5037932;28;20480;-88
2022/04/25 00:17:10;;;;;;;2.58;2.13;;;11.20;99.90;;;;;;5055754;28;20094;-87
2022/04/25 00:19:36;;;;;;;3.60;2.25;;;11.20;99.90;;;;;;5055666;28;20032;-87
2022/04/25 00:22:03;;;;;;;2.10;1.90;;;11.10;99.90;;;;;;5037899;28;20028;-88
2022/04/25 00:24:28;;;;;;;3.67;2.58;;;11.10;99.90;;;;;;5056320;28;20135;-88
2022/04/25 00:26:54;;;;;;;4.78;2.75;;;11.20;99.90;;;;;;5037778;28;20429;-88
2022/04/25 00:29:20;;;;;;;2.95;2.15;;;11.20;99.90;;;;;;5021462;28;20505;-87
2022/04/25 00:31:45;;;;;;;3.10;2.10;;;11.20;99.90;;;;;;5037602;28;20032;-88
2022/04/25 00:34:11;;;;;;;2.85;2.28;;;11.10;99.90;;;;;;5037587;28;20073;-88
2022/04/25 00:36:37;;;;;;;2.28;2.08;;;11.10;99.90;;;;;;5037583;28;20025;-87
2022/04/25 00:39:03;;;;;;;2.55;2.22;;;11.10;99.90;;;;;;5037594;28;20385;-88
2022/04/25 00:41:30;;;;;;;3.08;2.25;;;11.10;99.90;;;;;;5037624;28;20089;-88
2022/04/25 00:43:56;;;;;;;2.95;2.28;;;11.10;99.90;;;;;;5037531;28;20021;-88
2022/04/25 00:46:24;;;;;;;2.78;2.25;;;11.10;99.90;;;;;;5037534;28;20017;-86
2022/04/25 00:48:50;;;;;;;3.47;2.38;;;11.10;99.90;;;;;;5037292;28;20063;-88
2022/04/25 00:51:17;;;;;;;2.65;2.03;;;11.10;99.90;;;;;;5037241;28;20079;-87
2022/04/25 00:53:45;;;;;;;2.75;1.98;;;11.10;99.90;;;;;;5037393;28;20024;-87
2022/04/25 00:56:14;;;;;;;3.35;2.53;;;11.10;99.90;;;;;;5037227;28;20033;-87
2022/04/25 00:58:40;;;;;;;3.47;2.40;;;11.10;99.90;;;;;;5037068;28;20090;-88
2022/04/25 01:01:06;;;;;;;3.42;2.50;;;11.10;99.90;;;;;;5037177;28;20021;-87
2022/04/25 01:03:32;;;;;;;2.65;2.28;;;11.20;99.90;;;;;;5055066;28;20025;-88
2022/04/25 01:05:58;;;;;;;3.53;2.50;;;11.10;99.90;;;;;;5037166;28;20020;-88
2022/04/25 01:08:24;;;;;;;2.83;2.33;;;11.10;99.90;;;;;;5037399;28;20140;-88
2022/04/25 01:10:50;;;;;;;5.30;2.60;;;11.10;99.90;;;;;;5037001;28;20120;-88
2022/04/25 01:13:16;;;;;;;3.45;2.70;;;11.10;99.90;;;;;;5037035;28;20487;-88
2022/04/25 01:15:41;;;;;;;5.05;2.90;;;11.10;99.90;;;;;;5036800;28;20545;-87
2022/04/25 01:18:07;;;;;;;3.90;3.30;;;11.10;99.90;;;;;;5036948;28;20028;-88
2022/04/25 01:20:33;;;;;;;3.72;3.05;;;11.10;99.90;;;;;;5036674;28;20029;-88
2022/04/25 01:28:36;;;;;;;4.32;3.83;;;11.10;99.90;;;;;;5055006;28;20044;-88
2022/04/25 01:31:01;;;;;;;4.82;4.10;;;11.10;99.90;;;;;;5036065;28;20392;-88
2022/04/25 01:33:27;;;;;;;4.40;3.97;;;11.10;99.90;;;;;;5054509;28;20476;-88
2022/04/25 01:35:53;;;;;;;6.43;4.40;;;11.10;99.90;;;;;;5036382;28;20029;-88
2022/04/25 01:38:19;;;;;;;5.40;4.43;;;11.10;99.90;;;;;;5036401;28;20498;-89
2022/04/25 01:40:44;;;;;;;5.22;4.72;;;11.10;99.90;;;;;;5036530;28;20029;-89
2022/04/25 01:43:10;;;;;;;5.80;4.38;;;11.10;99.90;;;;;;5037025;28;20053;-89
2022/04/25 01:45:36;;;;;;;5.22;4.57;;;11.10;99.90;;;;;;5036379;28;20025;-87
2022/04/25 01:48:01;;;;;;;4.82;4.25;;;11.10;99.90;;;;;;5036437;28;20032;-89
2022/04/25 01:50:27;;;;;;;5.22;4.55;;;11.10;99.90;;;;;;5036343;28;20108;-88
2022/04/25 01:52:53;;;;;;;6.80;5.20;;;11.10;99.90;;;;;;5036277;28;20036;-89
2022/04/25 01:55:18;;;;;;;5.55;4.82;;;11.10;99.90;;;;;;5036151;28;20025;-89
2022/04/25 01:57:44;;;;;;;5.93;5.22;;;11.10;99.90;;;;;;5036385;28;20028;-89
2022/04/25 02:00:10;;;;;;;5.78;4.82;;;11.10;99.90;;;;;;5036287;28;20017;-88
2022/04/25 02:02:36;;;;;;;8.45;5.72;;;11.10;99.90;;;;;;5035964;28;20369;-89
2022/04/25 02:05:04;;;;;;;6.10;5.47;;;11.10;99.90;;;;;;5036434;28;20516;-89
2022/04/25 02:07:29;;;;;;;6.53;5.70;;;11.00;99.90;;;;;;5036129;28;20025;-88
2022/04/25 02:09:55;;;;;;;7.30;5.72;;;11.00;99.90;;;;;;5035983;28;20020;-88
2022/04/25 02:12:22;;;;;;;6.63;5.43;;;11.00;99.90;;;;;;5036021;28;20131;-88
2022/04/25 02:14:47;;;;;;;5.85;5.30;;;11.00;99.90;;;;;;5035919;28;20389;-88
2022/04/25 02:17:13;;;;;;;7.35;5.95;;;11.10;99.90;;;;;;5053951;28;20023;-89
2022/04/25 02:19:40;;;;;;;6.90;6.00;;;11.00;99.90;;;;;;5053711;28;20021;-89
2022/04/25 02:22:07;;;;;;;6.68;5.90;;;11.00;99.90;;;;;;5035921;28;20021;-88
2022/04/25 02:24:33;;;;;;;7.30;6.40;;;11.00;99.90;;;;;;5035769;28;20039;-88
2022/04/25 02:26:59;;;;;;;7.95;6.40;;;11.00;99.90;;;;;;5035706;28;20029;-88
2022/04/25 02:29:25;;;;;;;7.05;6.32;;;11.10;99.90;;;;;;5035709;28;20082;-89
2022/04/25 02:31:51;;;;;;;7.90;6.60;;;11.00;99.90;;;;;;5035713;28;20162;-89
2022/04/25 02:34:17;;;;;;;8.45;6.57;;;11.00;99.90;;;;;;5035423;28;20132;-88
2022/04/25 02:36:42;;;;;;;7.22;6.30;;;11.00;99.90;;;;;;5053522;28;20028;-89
2022/04/25 02:39:08;;;;;;;7.90;6.78;;;11.00;99.90;;;;;;5035580;28;20119;-89
2022/04/25 02:41:34;;;;;;;7.68;6.75;;;11.00;99.90;;;;;;5034687;28;20108;-88
2022/04/25 02:43:59;;;;;;;7.90;7.10;;;11.00;99.90;;;;;;5035528;28;20036;-87
2022/04/25 02:46:25;;;;;;;7.75;6.95;;;11.00;99.90;;;;;;5035516;28;20060;-89
2022/04/25 02:48:51;;;;;;;7.45;6.75;;;11.00;99.90;;;;;;5035483;28;20039;-88
2022/04/25 02:51:16;;;;;;;8.80;7.22;;;11.00;99.90;;;;;;5035564;28;20057;-89
2022/04/25 02:53:43;;;;;;;8.13;7.00;;;11.00;99.90;;;;;;5035394;28;20086;-89
2022/04/25 02:56:09;;;;;;;8.18;7.38;;;11.00;99.90;;;;;;5053322;28;20033;-89
2022/04/25 02:58:38;;;;;;;8.95;7.47;;;11.00;99.90;;;;;;5035333;28;20025;-89
2022/04/25 03:01:07;;;;;;;8.80;7.07;;;11.00;99.90;;;;;;5035356;28;20435;-88
2022/04/25 03:03:34;;;;;;;8.02;7.22;;;10.90;99.90;;;;;;5035435;28;20028;-89
2022/04/25 03:06:01;;;;;;;9.45;6.90;;;11.00;99.90;;;;;;5035270;28;20111;-89
2022/04/25 03:08:27;;;;;;;8.18;6.82;;;10.90;99.90;;;;;;5035141;28;20027;-88
2022/04/25 03:10:54;;;;;;;11.23;7.30;;;10.90;99.90;;;;;;5035318;28;20021;-89
2022/04/25 03:13:21;;;;;;;8.93;7.13;;;10.90;99.90;;;;;;5035312;28;20090;-88
2022/04/25 03:15:48;;;;;;;9.25;6.70;;;10.90;99.90;;;;;;5052983;28;20108;-88
2022/04/25 03:18:15;;;;;;;10.10;7.32;;;11.00;99.90;;;;;;5035165;28;20021;-88
2022/04/25 03:20:46;;;;;;;8.98;7.10;;;10.90;99.90;;;;;;5035434;28;20472;-89
2022/04/25 03:23:14;;;;;;;9.57;7.53;;;10.90;99.90;;;;;;5034955;28;20516;-89
2022/04/25 03:25:40;;;;;;;12.75;7.65;;;10.90;99.90;;;;;;5035177;28;20033;-88
2022/04/25 03:28:06;;;;;;;10.75;7.28;;;10.90;99.90;;;;;;5035135;28;20055;-89
2022/04/25 03:30:32;;;;;;;9.77;8.13;;;10.90;99.90;;;;;;5035173;28;20506;-88
2022/04/25 03:32:58;;;;;;;8.15;7.20;;;10.90;99.90;;;;;;5053213;28;20032;-89
2022/04/25 03:35:25;;;;;;;8.07;7.18;;;10.90;99.90;;;;;;5035136;28;20094;-88
2022/04/25 03:37:52;;;;;;;8.57;7.38;;;10.90;99.90;;;;;;5034989;28;20022;-89
2022/04/25 03:40:18;;;;;;;8.90;7.15;;;10.90;99.90;;;;;;5034875;28;20408;-89
2022/04/25 03:42:45;;;;;;;8.27;7.40;;;10.90;99.90;;;;;;5034867;28;20025;-89
2022/04/25 03:45:15;;;;;;;9.60;7.93;;;10.90;99.90;;;;;;5034883;28;20107;-89
2022/04/25 03:47:41;;;;;;;8.40;7.45;;;10.90;99.90;;;;;;5052757;28;20021;-89
2022/04/25 03:50:08;;;;;;;9.57;7.68;;;10.90;99.90;;;;;;5034788;28;20021;-89
2022/04/25 03:52:38;;;;;;;8.60;7.32;;;10.90;99.90;;;;;;5035420;28;20075;-88
2022/04/25 03:57:49;;;;;;;8.48;7.05;;;10.90;99.90;;;;;;5057051;28;20499;-89
2022/04/25 04:00:15;;;;;;;8.90;8.00;;;10.90;99.90;;;;;;5056602;28;20025;-88
2022/04/25 04:02:41;;;;;;;8.05;6.97;;;10.90;99.90;;;;;;5038638;28;20023;-88
2022/04/25 04:05:07;;;;;;;9.00;7.57;;;10.80;99.90;;;;;;5056475;28;20118;-88
2022/04/25 04:07:32;;;;;;;9.02;7.93;;;10.80;99.90;;;;;;5038661;28;20052;-88
2022/04/25 04:09:59;;;;;;;8.75;7.57;;;10.90;99.90;;;;;;5038166;28;20114;-88
2022/04/25 04:12:29;;;;;;;7.70;6.82;;;10.80;99.90;;;;;;5056032;28;20028;-89
2022/04/25 04:14:55;;;;;;;7.60;6.80;;;10.80;99.90;;;;;;5038213;28;20025;-89
2022/04/25 04:17:21;;;;;;;7.57;6.80;;;10.80;99.90;;;;;;5038183;28;20029;-89
2022/04/25 04:19:47;;;;;;;7.60;6.72;;;10.80;99.90;;;;;;5038247;28;20480;-89
2022/04/25 04:22:13;;;;;;;9.90;7.65;;;10.80;99.90;;;;;;5038338;28;20017;-89
2022/04/25 04:24:39;;;;;;;9.38;7.55;;;10.80;99.90;;;;;;5056157;28;20025;-88
2022/04/25 04:27:06;;;;;;;8.98;7.72;;;10.80;99.90;;;;;;5056003;28;20035;-89
2022/04/25 04:29:33;;;;;;;8.52;7.57;;;10.80;99.90;;;;;;5037987;28;20021;-89
2022/04/25 04:32:01;;;;;;;8.75;7.65;;;10.80;99.90;;;;;;5039294;28;20078;-90
2022/04/25 04:34:28;;;;;;;9.65;7.88;;;10.80;99.90;;;;;;5038289;28;20120;-90
2022/04/25 04:36:54;;;;;;;8.85;7.78;;;10.80;99.90;;;;;;5038235;28;20025;-90
2022/04/25 04:39:20;;;;;;;9.30;7.70;;;10.80;99.90;;;;;;5038235;28;20032;-90
2022/04/25 04:41:46;;;;;;;8.32;7.35;;;10.80;99.90;;;;;;5038389;28;20082;-90
2022/04/25 04:44:12;;;;;;;9.93;8.05;;;10.80;99.90;;;;;;5037904;28;20498;-89
2022/04/25 04:46:38;;;;;;;9.40;7.80;;;10.80;99.90;;;;;;5038111;28;20396;-90
2022/04/25 04:49:04;;;;;;;9.52;7.55;;;10.80;99.90;;;;;;5037995;28;20025;-89
2022/04/25 04:51:30;;;;;;;7.95;7.05;;;10.80;99.90;;;;;;5055713;28;20047;-90
2022/04/25 04:54:02;;;;;;;9.52;8.02;;;10.80;99.90;;;;;;5037789;28;20113;-90
2022/04/25 04:56:29;;;;;;;8.95;8.05;;;10.80;99.90;;;;;;5037654;28;20025;-90
2022/04/25 04:58:55;;;;;;;9.90;7.90;;;10.80;99.90;;;;;;5037943;28;20468;-90
2022/04/25 05:01:21;;;;;;;7.97;7.13;;;10.80;99.90;;;;;;5038335;28;20017;-90
2022/04/25 05:03:46;;;;;;;8.00;7.20;;;10.80;99.90;;;;;;5037625;28;20025;-90
2022/04/25 05:06:12;;;;;;;8.48;7.22;;;10.80;99.90;;;;;;5055458;28;20032;-91
2022/04/25 05:08:39;;;;;;;8.60;7.43;;;10.80;99.90;;;;;;5037864;28;20021;-90
2022/04/25 05:11:06;;;;;;;9.25;7.40;;;10.80;99.90;;;;;;5037893;28;20037;-90
2022/04/25 05:13:32;;;;;;;9.05;7.25;;;10.80;99.90;;;;;;5038430;28;20032;-91
2022/04/25 05:15:58;;;;;;;9.43;7.32;;;10.80;99.90;;;;;;5037508;28;20028;-90
2022/04/25 05:18:27;;;;;;;8.18;7.38;;;10.80;99.90;;;;;;5037417;28;20093;-89
2022/04/25 05:20:53;;;;;;;8.27;6.65;;;10.80;99.90;;;;;;5037387;28;20408;-89
2022/04/25 05:23:18;;;;;;;8.02;6.65;;;10.80;99.90;;;;;;5037177;28;20040;-89
2022/04/25 05:25:44;;;;;;;8.60;7.13;;;10.80;99.90;;;;;;5055496;28;20500;-90
2022/04/25 05:28:10;;;;;;;8.55;7.28;;;10.80;99.90;;;;;;5037155;28;20036;-90
2022/04/25 05:30:36;;;;;;;9.20;7.75;;;10.80;99.90;;;;;;5054991;28;20477;-91
2022/04/25 05:33:02;;;;;;;7.65;6.72;;;10.80;99.90;;;;;;5037295;28;20374;-90
2022/04/25 05:35:30;;;;;;;8.98;6.95;;;10.80;99.90;;;;;;5037411;28;20373;-90
2022/04/25 05:37:56;;;;;;;7.85;6.78;;;10.80;99.90;;;;;;5037435;28;20036;-90
2022/04/25 05:40:23;;;;;;;8.27;7.15;;;10.80;99.90;;;;;;5036986;28;20022;-90
2022/04/25 05:42:50;;;;;;;7.65;6.80;;;10.80;99.90;;;;;;5036945;28;20033;-90
2022/04/25 05:45:21;;;;;;;8.07;6.78;;;10.80;99.90;;;;;;5054839;28;20025;-90
2022/04/25 05:47:47;;;;;;;8.27;6.93;;;10.80;99.90;;;;;;5037061;28;20452;-89
2022/04/25 05:53:00;;;;;;;10.35;6.93;;;10.80;99.90;;;;;;5055369;28;20155;-89
2022/04/25 05:55:28;;;;;;;8.27;6.85;;;10.80;99.90;;;;;;5054597;28;20125;-90
2022/04/25 05:57:54;;;;;;;8.02;6.90;;;10.90;99.90;;;;;;5037910;28;20024;-90
2022/04/25 06:00:20;;;;;;;7.60;6.63;;;10.90;99.90;;;;;;5036850;28;20136;-90
2022/04/25 06:02:49;;;;;;;8.35;6.88;;;10.90;99.90;;;;;;5036958;28;20488;-90
2022/04/25 06:05:15;;;;;;;8.35;6.80;;;10.90;99.90;;;;;;5037043;28;20105;-91
2022/04/25 06:07:43;;;;;;;7.80;6.55;;;10.90;99.90;;;;;;5054702;28;20052;-90
2022/04/25 06:10:10;;;;;;;7.80;6.63;;;10.90;99.90;;;;;;5054591;28;20017;-90
2022/04/25 06:12:44;;;;;;;8.60;6.55;;;10.90;99.90;;;;;;5036812;28;20049;-91
2022/04/25 06:15:10;;;;;;;9.77;6.93;;;10.90;99.90;;;;;;5036640;28;20021;-90
2022/04/25 06:17:37;;;;;;;7.50;6.68;;;10.90;99.90;;;;;;5054506;28;20033;-90
2022/04/25 06:20:04;;;;;;;7.93;6.57;;;10.90;99.90;;;;;;5037015;28;20029;-91
2022/04/25 06:22:29;;;;;;;7.90;6.50;;;10.90;99.90;;;;;;5054399;28;20033;-91
2022/04/25 06:24:55;;;;;;;7.55;6.00;;;10.90;99.90;;;;;;5036780;28;20062;-90
2022/04/25 06:27:21;;;;;;;8.40;6.82;;;10.90;99.90;;;;;;5036595;28;20028;-90
2022/04/25 06:29:46;;;;;;;9.60;7.07;;;10.90;99.90;;;;;;5036655;28;20473;-90
2022/04/25 06:32:13;;;;;;;6.93;6.22;;;10.90;99.90;;;;;;5036574;28;20426;-91
2022/04/25 06:34:40;;;;;;;8.07;6.80;;;11.00;99.90;;;;;;5036574;28;20061;-91
2022/04/25 06:37:06;;;;;;;7.30;6.05;;;11.00;99.90;;;;;;5036606;28;20036;-91
2022/04/25 06:39:32;;;;;;;7.78;6.45;;;10.90;99.90;;;;;;5036527;28;20100;-91
2022/04/25 06:41:58;;;;;;;7.53;6.45;;;11.00;99.90;;;;;;5036253;28;20025;-91
2022/04/25 06:44:24;;;;;;;8.13;6.93;;;11.00;99.90;;;;;;5054385;28;20108;-91
2022/04/25 06:46:49;;;;;;;7.90;6.78;;;11.00;99.90;;;;;;5036879;28;20494;-91
2022/04/25 06:49:21;;;;;;;7.78;6.82;;;11.00;99.90;;;;;;5036985;28;20025;-91
2022/04/25 06:51:52;;;;;;;7.50;6.55;;;11.00;99.90;;;;;;5037042;28;20029;-92
2022/04/25 06:54:18;;;;;;;8.15;6.65;;;11.00;99.90;;;;;;5037543;28;20463;-91
2022/04/25 06:56:44;;;;;;;7.70;6.90;;;11.10;99.90;;;;;;5036809;28;20032;-91
2022/04/25 06:59:10;;;;;;;8.93;6.57;;;11.10;99.90;;;;;;5037488;28;20025;-92
2022/04/25 07:01:36;;;;;;;7.72;6.80;;;11.10;99.90;;;;;;5036582;28;20017;-92
2022/04/25 07:04:06;;;;;;;8.02;6.65;;;11.10;99.90;;;;;;5036855;28;20028;-91
2022/04/25 07:06:33;;;;;;;9.23;7.30;;;11.10;99.90;;;;;;5036713;28;20021;-91
2022/04/25 07:08:59;;;;;;;7.70;6.90;;;11.10;99.90;;;;;;5036509;28;20047;-93
2022/04/25 07:11:24;;;;;;;8.70;6.82;;;11.10;99.90;;;;;;5036800;28;20021;-92
2022/04/25 07:13:51;;;;;;;7.93;7.07;;;11.10;99.90;;;;;;5037711;28;20525;-92
2022/04/25 07:16:17;;;;;;;8.57;7.00;;;11.10;99.90;;;;;;5037162;28;20029;-93
2022/04/25 07:18:43;;;;;;;8.38;7.00;;;11.10;99.90;;;;;;5036565;28;20021;-92
2022/04/25 07:29:22;;;;;;;8.88;7.25;;;11.20;99.90;;;;;;5057666;28;20414;-91
2022/04/25 07:31:50;;;;;;;8.70;7.07;;;11.20;99.90;;;;;;5041011;28;20366;-93
2022/04/25 07:34:20;;;;;;;8.05;6.80;;;11.20;99.90;;;;;;5040724;28;20099;-92
2022/04/25 07:36:53;;;;;;;8.52;7.13;;;11.20;99.90;;;;;;5040437;28;20063;-92
2022/04/25 07:39:22;;;;;;;7.93;6.93;;;11.20;99.90;;;;;;5040701;28;20108;-92
2022/04/25 07:41:49;;;;;;;8.60;7.10;;;11.20;99.90;;;;;;5040662;28;20059;-93
2022/04/25 07:44:15;;;;;;;8.48;7.20;;;11.10;99.90;;;;;;5040521;28;20029;-92
2022/04/25 07:46:41;;;;;;;8.27;6.72;;;11.10;99.90;;;;;;5040403;28;20032;-92
2022/04/25 07:49:11;;;;;;;10.40;7.70;;;11.20;99.90;;;;;;5040949;28;20029;-92
2022/04/25 07:51:40;;;;;;;10.13;7.45;;;11.20;99.90;;;;;;5040524;28;20350;-92
2022/04/25 07:54:06;;;;;;;9.20;7.07;;;11.20;99.90;;;;;;5039747;28;20021;-91
2022/04/25 07:56:32;;;;;;;8.18;7.05;;;11.30;99.90;;;;;;5040177;28;20158;-91
2022/04/25 07:59:00;;;;;;;12.18;7.72;;;11.40;99.90;;;;;;5039835;28;20016;-91
2022/04/25 08:01:27;;;;;;;9.82;7.45;;;11.50;99.90;;;;;;5039475;28;20404;-92
2022/04/25 08:03:56;;;;;;;7.38;6.55;;;11.50;99.90;;;;;;5023477;28;20031;-92
2022/04/25 08:06:23;;;;;;;8.90;7.68;;;11.60;99.90;;;;;;5040061;28;20036;-92
2022/04/25 08:08:50;;;;;;;9.82;7.30;;;11.60;99.90;;;;;;5039520;28;20025;-92
2022/04/25 08:11:16;;;;;;;8.68;6.72;;;11.60;99.90;;;;;;5040312;28;20031;-93
2022/04/25 08:19:13;;;;;;;10.23;6.93;;;11.60;99.90;;;;;;5057858;28;20051;-91
2022/04/25 08:21:44;;;;;;;9.43;7.25;;;11.60;99.90;;;;;;5039511;28;20025;-91
2022/04/25 08:24:11;;;;;;;8.88;7.13;;;11.60;99.90;;;;;;5039199;28;20041;-92
2022/04/25 08:26:37;;;;;;;8.30;7.10;;;11.70;99.90;;;;;;5039064;28;20021;-93
2022/04/25 08:29:04;;;;;;;7.65;6.88;;;11.70;99.90;;;;;;5039974;28;20032;-93
2022/04/25 08:31:31;;;;;;;7.95;7.15;;;11.70;99.90;;;;;;5039636;28;20446;-93
2022/04/25 08:33:57;;;;;;;8.85;7.05;;;11.70;99.90;;;;;;5040270;28;20025;-92
2022/04/25 08:36:23;;;;;;;7.25;6.53;;;11.60;99.90;;;;;;5039397;28;20420;-94
2022/04/25 08:38:49;;;;;;;7.40;6.68;;;11.70;99.90;;;;;;5038773;28;20022;-94
2022/04/25 08:41:21;;;;;;;7.10;6.40;;;11.60;99.90;;;;;;5040374;28;20032;-95
2022/04/25 08:43:51;;;;;;;7.90;6.70;;;11.60;99.90;;;;;;5040553;28;20025;-91
2022/04/25 08:46:19;;;;;;;8.82;7.00;;;11.60;99.90;;;;;;5038954;28;20502;-95
2022/04/25 08:48:46;;;;;;;8.68;7.25;;;11.60;99.90;;;;;;5039068;28;20025;-96
2022/04/25 08:51:12;;;;;;;8.90;7.72;;;11.50;99.90;;;;;;5040613;28;20160;-93
2022/04/25 08:53:40;;;;;;;8.00;7.13;;;11.50;99.90;;;;;;5041919;28;20025;-95
2022/04/25 08:56:07;;;;;;;9.63;7.00;;;11.50;99.90;;;;;;5039664;28;20021;-93
2022/04/25 08:58:36;;;;;;;7.70;6.75;;;11.50;99.90;;;;;;5039012;28;20079;-93
2022/04/25 09:01:02;;;;;;;7.57;6.78;;;11.40;99.90;;;;;;5038788;28;20021;-91
2022/04/25 09:03:28;;;;;;;9.00;6.85;;;11.40;99.90;;;;;;5039143;28;20059;-91
2022/04/25 09:05:55;;;;;;;8.13;6.70;;;11.50;99.90;;;;;;5039119;28;20029;-92
2022/04/25 09:08:21;;;;;;;8.68;7.30;;;11.40;99.90;;;;;;5038726;28;20103;-93
2022/04/25 09:10:48;;;;;;;7.88;6.75;;;11.40;99.90;;;;;;5038461;28;20029;-93
2022/04/25 09:13:17;;;;;;;7.13;6.30;;;11.40;99.90;;;;;;5038807;28;20447;-93
2022/04/25 09:15:43;;;;;;;9.65;6.30;;;11.40;99.90;;;;;;5038288;28;20035;-91
2022/04/25 09:18:10;;;;;;;7.95;6.28;;;11.50;99.90;;;;;;5038407;28;20423;-93
2022/04/25 09:20:36;;;;;;;6.57;5.88;;;11.50;99.90;;;;;;5038004;28;20116;-91
2022/04/25 09:23:04;;;;;;;6.13;5.53;;;11.60;99.90;;;;;;5029887;28;20045;-91
2022/04/25 09:25:29;;;;;;;7.20;6.25;;;11.70;99.90;;;;;;5002024;28;20056;-92
2022/04/25 09:28:13;;;;;;;8.73;6.70;;;11.80;99.90;;;;;;5018552;28;20021;-93
2022/04/25 09:30:39;;;;;;;8.35;6.07;;;11.80;99.90;;;;;;5019224;28;20534;-92
2022/04/25 09:33:21;;;;;;;11.60;7.38;;;11.90;99.90;;;;;;5018239;28;20119;-93
2022/04/25 09:35:53;;;;;;;10.90;7.63;;;11.90;99.90;;;;;;5017497;28;20497;-95
2022/04/25 09:38:32;;;;;;;8.27;7.38;;;12.00;99.90;;;;;;5018467;28;20566;-93
2022/04/25 09:40:58;;;;;;;8.68;6.78;;;12.00;99.90;;;;;;5017923;28;20562;-93
2022/04/25 09:43:32;;;;;;;7.47;6.63;;;12.00;99.90;;;;;;5001750;28;20022;-94
2022/04/25 09:46:12;;;;;;;9.43;7.38;;;12.00;99.90;;;;;;5017939;28;20029;-90
2022/04/25 09:48:41;;;;;;;7.28;6.57;;;11.90;99.90;;;;;;5018172;28;20034;-95
2022/04/25 09:51:22;;;;;;;7.22;6.40;;;11.90;99.90;;;;;;5018101;28;20074;-96
2022/04/25 09:53:50;;;;;;;8.68;7.18;;;11.90;99.90;;;;;;5018598;28;20076;-94
2022/04/25 09:56:20;;;;;;;11.35;7.00;;;11.80;99.90;;;;;;5018023;28;20021;-94
2022/04/25 09:59:14;;;;;;;8.98;7.13;;;11.80;99.90;;;;;;5018868;28;20028;-96
2022/04/25 10:01:43;;;;;;;8.02;6.72;;;11.80;99.90;;;;;;5026047;28;20029;-94
2022/04/25 10:07:31;;;;;;;7.88;6.88;;;11.70;99.90;;;;;;5045348;28;20037;-94
2022/04/25 10:09:57;;;;;;;7.65;6.53;;;11.70;99.90;;;;;;5018131;28;20461;-95
2022/04/25 10:12:23;;;;;;;7.88;6.70;;;11.60;99.90;;;;;;5018209;28;20032;-94
2022/04/25 10:14:50;;;;;;;8.07;6.90;;;11.60;99.90;;;;;;5018045;28;20025;-96
2022/04/25 10:17:17;;;;;;;8.57;6.90;;;11.60;99.90;;;;;;5018110;28;20022;-96
2022/04/25 10:19:43;;;;;;;8.35;6.47;;;11.60;99.90;;;;;;5018199;28;20021;-94
2022/04/25 10:22:10;;;;;;;8.13;6.45;;;11.60;99.90;;;;;;5018622;28;20092;-95
2022/04/25 10:24:36;;;;;;;7.95;6.72;;;11.50;99.90;;;;;;5021507;28;20484;-94
2022/04/25 10:27:08;;;;;;;6.57;5.85;;;11.50;99.90;;;;;;5038218;28;20025;-95
2022/04/25 10:29:36;;;;;;;7.78;6.93;;;11.50;99.90;;;;;;5037795;28;20032;-93
2022/04/25 10:32:04;;;;;;;8.05;7.05;;;11.50;99.90;;;;;;5037698;28;20472;-93
2022/04/25 10:35:04;;;;;;;9.32;7.05;;;11.50;99.90;;;;;;5037375;28;20029;-94
2022/04/25 10:37:31;;;;;;;8.10;6.65;;;11.50;99.90;;;;;;5037380;28;20028;-93
2022/04/25 10:39:57;;;;;;;7.68;6.85;;;11.60;99.90;;;;;;5037231;28;20021;-94
2022/04/25 10:45:09;;;;;;;7.95;6.93;;;11.60;99.90;;;;;;5055425;28;20036;-94
2022/04/25 10:47:35;;;;;;;7.53;6.57;;;11.60;99.90;;;;;;5037013;28;20033;-94
2022/04/25 10:50:06;;;;;;;7.90;6.72;;;11.50;99.90;;;;;;5037746;28;20117;-95
2022/04/25 10:52:33;;;;;;;9.15;7.00;;;11.50;99.90;;;;;;5036761;28;20020;-93
2022/04/25 10:55:38;;;;;;;9.77;6.70;;;11.50;99.90;;;;;;5037025;28;20025;-92
2022/04/25 10:58:04;;;;;;;9.07;6.65;;;11.50;99.90;;;;;;5036965;28;20026;-92
2022/04/25 11:00:45;;;;;;;8.35;6.60;;;11.50;99.90;;;;;;5036971;28;20040;-92
2022/04/25 11:03:19;;;;;;;8.38;6.95;;;11.50;99.90;;;;;;5036565;28;20484;-92
2022/04/25 11:05:49;;;;;;;8.63;6.90;;;11.50;99.90;;;;;;5036660;28;20028;-92
2022/04/25 11:08:18;;;;;;;7.22;6.50;;;11.50;99.90;;;;;;5037756;28;20480;-91
2022/04/25 11:10:48;;;;;;;8.02;6.57;;;11.40;99.90;;;;;;5036229;28;20029;-91
2022/04/25 11:13:18;;;;;;;8.38;6.45;;;11.40;99.90;;;;;;5036033;28;20033;-92
2022/04/25 11:15:49;;;;;;;9.02;7.18;;;11.40;99.90;;;;;;5035836;28;20025;-91
2022/04/25 11:18:35;;;;;;;8.93;6.75;;;11.40;99.90;;;;;;5036744;28;20025;-90
2022/04/25 11:21:16;;;;;;;9.40;6.95;;;11.40;99.90;;;;;;5035892;28;20017;-90
2022/04/25 11:23:51;;;;;;;7.40;6.60;;;11.40;99.90;;;;;;5035234;28;20033;-90
2022/04/25 11:26:22;;;;;;;7.22;6.15;;;11.40;99.90;;;;;;5036296;28;20083;-89
2022/04/25 11:28:58;;;;;;;8.02;7.13;;;11.40;99.90;;;;;;5035850;28;20021;-90
2022/04/25 11:31:31;;;;;;;7.95;6.80;;;11.40;99.90;;;;;;5035346;28;20028;-89
2022/04/25 11:34:02;;;;;;;8.18;6.78;;;11.40;99.90;;;;;;5035382;28;20108;-89
2022/04/25 11:36:31;;;;;;;7.72;6.18;;;11.40;99.90;;;;;;5035855;28;20121;-89
2022/04/25 11:41:44;;;;;;;9.27;6.50;;;11.40;99.90;;;;;;5054185;28;20032;-87
2022/04/25 11:44:10;;;;;;;7.45;5.97;;;11.40;99.90;;;;;;5035475;28;20021;-90
2022/04/25 11:46:37;;;;;;;8.60;7.07;;;11.50;99.90;;;;;;5036199;28;20033;-89
2022/04/25 11:49:05;;;;;;;7.65;5.88;;;11.50;99.90;;;;;;5035083;28;20040;-88
2022/04/25 11:51:31;;;;;;;6.60;5.88;;;11.50;99.90;;;;;;5035197;28;20035;-89
2022/04/25 11:54:04;;;;;;;6.57;5.82;;;11.60;99.90;;;;;;5034989;28;20021;-88
2022/04/25 11:56:31;;;;;;;8.43;5.88;;;11.50;99.90;;;;;;5035128;28;20025;-88
2022/04/25 11:58:58;;;;;;;5.90;5.30;;;11.60;99.90;;;;;;5052642;28;20077;-88
2022/04/25 12:01:38;;;;;;;13.35;9.50;;;11.60;99.90;;;;;;5034827;28;20025;-88
2022/04/25 12:04:18;;;;;;;9.68;6.88;;;11.60;99.90;;;;;;5053202;28;20362;-88
2022/04/25 12:06:53;;;;;;;7.60;6.75;;;11.60;99.90;;;;;;5035176;28;20428;-89
2022/04/25 12:18:10;;;;;;;7.75;6.00;;;11.70;99.90;;;;;;5056860;28;20027;-90
2022/04/25 12:20:35;;;;;;;7.57;5.97;;;11.80;99.90;;;;;;5025260;28;20086;-90
2022/04/25 12:23:01;;;;;;;7.50;5.80;;;11.80;99.90;;;;;;5038723;28;20037;-90
2022/04/25 12:25:33;;;;;;;7.35;6.18;;;11.80;99.90;;;;;;5039049;28;20064;-89
2022/04/25 12:28:01;;;;;;;6.10;5.50;;;11.80;99.90;;;;;;5039661;28;20059;-90
2022/04/25 12:30:28;;;;;;;6.75;5.80;;;11.80;99.90;;;;;;5039601;28;20384;-90
2022/04/25 12:33:12;;;;;;;6.57;5.45;;;11.90;99.90;;;;;;5038568;28;20116;-90
2022/04/25 12:35:38;;;;;;;6.65;5.47;;;12.00;99.90;;;;;;5039282;28;20117;-90
2022/04/25 12:38:05;;;;;;;6.82;5.53;;;12.10;99.90;;;;;;5038986;28;20112;-89
2022/04/25 12:40:31;;;;;;;6.70;5.18;;;12.20;99.90;;;;;;5038490;28;20021;-91
2022/04/25 12:42:57;;;;;;;6.38;4.97;;;12.30;99.90;;;;;;5038643;28;20432;-91
2022/04/25 12:45:23;;;;;;;6.20;4.97;;;12.40;99.90;;;;;;5038126;28;20090;-91
2022/04/25 12:47:57;;;;;;;4.78;4.32;;;12.60;99.90;;;;;;5039139;28;20025;-91
2022/04/25 12:50:45;;;;;;;5.13;4.03;;;12.80;99.90;;;;;;5038865;28;20033;-90
2022/04/25 12:53:11;;;;;;;4.38;3.97;;;13.10;99.90;;;;;;5039389;28;20052;-90
2022/04/25 12:55:45;;;;;;;4.60;3.72;;;13.30;99.90;;;;;;5039487;28;20039;-91
2022/04/25 12:58:11;;;;;;;6.20;3.95;;;13.60;99.90;;;;;;5039400;28;20048;-90
2022/04/25 13:00:49;;;;;;;6.50;3.85;;;13.80;99.90;;;;;;5038354;28;20033;-90
2022/04/25 13:03:15;;;;;;;4.88;3.65;;;13.90;99.90;;;;;;5039732;28;20043;-92
2022/04/25 13:05:41;;;;;;;4.03;3.42;;;14.00;99.90;;;;;;5039444;28;20092;-94
2022/04/25 13:08:07;;;;;;;4.50;3.67;;;14.10;99.90;;;;;;5039031;28;20112;-92
2022/04/25 13:10:32;;;;;;;3.53;3.15;;;14.10;99.90;;;;;;5038697;28;20021;-91
2022/04/25 13:13:01;;;;;;;3.63;2.95;;;14.10;99.90;;;;;;5038949;28;20502;-95
2022/04/25 13:15:31;;;;;;;3.83;3.00;;;14.00;99.90;;;;;;5039840;28;20075;-93
2022/04/25 13:17:58;;;;;;;4.88;3.28;;;14.10;99.90;;;;;;5038838;28;20025;-92
2022/04/25 13:20:31;;;;;;;2.88;2.67;;;14.10;99.90;;;;;;5040982;28;20021;-93
2022/04/25 13:22:59;;;;;;;2.95;2.63;;;14.10;99.90;;;;;;5042225;28;20124;-92
2022/04/25 13:25:25;;;;;;;3.20;2.90;;;14.30;99.90;;;;;;5040011;28;20021;-93
2022/04/25 13:27:52;;;;;;;3.53;3.03;;;14.30;99.90;;;;;;5039815;28;20024;-94
2022/04/25 13:30:20;;;;;;;3.42;3.13;;;14.30;99.90;;;;;;5039846;28;20431;-95